sensor_id;sensor_type;location;lat;lon;timestamp;temperature;humidity
35523;DHT22;61478;50.820;4.330;2023-02-15T00:00:35;6.40;99.90
35523;DHT22;61478;50.820;4.330;2023-02-15T00:03:00;6.40;99.90
35523;DHT22;61478;50.820;4.330;2023-02-15T00:05:27;6.40;99.90
35523;DHT22;61478;50.820;4.330;2023-02-15T00:07:57;6.30;99.90
35523;DHT22;61478;50.820;4.330;2023-02-15T00:10:23;6.20;99.90
35523;DHT22;61478;50.820;4.330;2023-02-15T00:12:49;6.10;99.90
35523;DHT22;61478;50.820;4.330;2023-02-15T00:15:15;6.30;99.90
35523;DHT22;61478;50.820;4.330;2023-02-15T00:17:41;6.40;99.90
35523;DHT22;61478;50.820;4.330;2023-02-15T00:20:07;6.50;99.90
35523;DHT22;61478;50.820;4.330;2023-02-15T00:22:33;6.70;99.90
35523;DHT22;61478;50.820;4.330;2023-02-15T00:24:59;6.80;99.90
35523;DHT22;61478;50.820;4.330;2023-02-15T00:27:25;7.10;99.90
35523;DHT22;61478;50.820;4.330;2023-02-15T00:29:53;7.00;99.90
35523;DHT22;61478;50.820;4.330;2023-02-15T00:32:19;6.90;99.90
35523;DHT22;61478;50.820;4.330;2023-02-15T00:34:45;6.80;99.90
35523;DHT22;61478;50.820;4.330;2023-02-15T00:37:11;6.50;99.90
35523;DHT22;61478;50.820;4.330;2023-02-15T00:39:37;6.60;99.90
35523;DHT22;61478;50.820;4.330;2023-02-15T00:42:03;6.70;99.90
35523;DHT22;61478;50.820;4.330;2023-02-15T00:44:29;6.60;99.90
35523;DHT22;61478;50.820;4.330;2023-02-15T00:46:55;6.40;99.90
35523;DHT22;61478;50.820;4.330;2023-02-15T00:49:21;6.40;99.90
35523;DHT22;61478;50.820;4.330;2023-02-15T00:51:47;6.60;99.90
35523;DHT22;61478;50.820;4.330;2023-02-15T00:54:14;6.90;99.90
35523;DHT22;61478;50.820;4.330;2023-02-15T00:56:40;7.20;99.90
35523;DHT22;61478;50.820;4.330;2023-02-15T00:59:07;7.30;99.90
35523;DHT22;61478;50.820;4.330;2023-02-15T01:01:34;7.10;99.90
35523;DHT22;61478;50.820;4.330;2023-02-15T01:04:00;6.90;99.90
35523;DHT22;61478;50.820;4.330;2023-02-15T01:06:26;6.70;99.90
35523;DHT22;61478;50.820;4.330;2023-02-15T01:08:52;6.70;99.90
35523;DHT22;61478;50.820;4.330;2023-02-15T01:11:21;6.60;99.90
35523;DHT22;61478;50.820;4.330;2023-02-15T01:13:57;6.50;99.90
35523;DHT22;61478;50.820;4.330;2023-02-15T01:16:25;6.50;99.90
35523;DHT22;61478;50.820;4.330;2023-02-15T01:18:52;6.40;99.90
35523;DHT22;61478;50.820;4.330;2023-02-15T01:21:22;6.30;99.90
35523;DHT22;61478;50.820;4.330;2023-02-15T01:23:48;6.40;99.90
35523;DHT22;61478;50.820;4.330;2023-02-15T01:26:14;6.70;99.90
35523;DHT22;61478;50.820;4.330;2023-02-15T01:28:41;6.80;99.90
35523;DHT22;61478;50.820;4.330;2023-02-15T01:31:13;6.90;99.90
35523;DHT22;61478;50.820;4.330;2023-02-15T01:33:39;6.90;99.90
35523;DHT22;61478;50.820;4.330;2023-02-15T01:36:05;6.70;99.90
35523;DHT22;61478;50.820;4.330;2023-02-15T01:38:32;6.40;99.90
35523;DHT22;61478;50.820;4.330;2023-02-15T01:40:58;6.10;99.90
35523;DHT22;61478;50.820;4.330;2023-02-15T01:44:03;6.10;99.90
35523;DHT22;61478;50.820;4.330;2023-02-15T01:46:41;6.10;99.90
35523;DHT22;61478;50.820;4.330;2023-02-15T01:49:17;6.10;99.90
35523;DHT22;61478;50.820;4.330;2023-02-15T01:51:46;5.90;99.90
35523;DHT22;61478;50.820;4.330;2023-02-15T01:54:27;5.60;99.90
35523;DHT22;61478;50.820;4.330;2023-02-15T01:57:05;5.60;99.90
35523;DHT22;61478;50.820;4.330;2023-02-15T01:59:33;5.50;99.90
35523;DHT22;61478;50.820;4.330;2023-02-15T02:02:01;5.50;99.90
35523;DHT22;61478;50.820;4.330;2023-02-15T02:04:44;5.70;99.90
35523;DHT22;61478;50.820;4.330;2023-02-15T02:07:12;5.70;99.90
35523;DHT22;61478;50.820;4.330;2023-02-15T02:09:39;6.00;99.90
35523;DHT22;61478;50.820;4.330;2023-02-15T02:12:06;6.30;99.90
35523;DHT22;61478;50.820;4.330;2023-02-15T02:14:33;6.50;99.90
35523;DHT22;61478;50.820;4.330;2023-02-15T02:17:27;6.60;99.90
35523;DHT22;61478;50.820;4.330;2023-02-15T02:20:17;6.00;99.90
35523;DHT22;61478;50.820;4.330;2023-02-15T02:23:23;5.80;99.90
35523;DHT22;61478;50.820;4.330;2023-02-15T02:42:14;6.40;99.90
35523;DHT22;61478;50.820;4.330;2023-02-15T02:44:46;6.40;99.90
35523;DHT22;61478;50.820;4.330;2023-02-15T02:47:16;6.10;99.90
35523;DHT22;61478;50.820;4.330;2023-02-15T02:49:43;6.20;99.90
35523;DHT22;61478;50.820;4.330;2023-02-15T02:52:42;6.10;99.90
35523;DHT22;61478;50.820;4.330;2023-02-15T02:55:10;6.00;99.90
35523;DHT22;61478;50.820;4.330;2023-02-15T02:57:42;6.00;99.90
35523;DHT22;61478;50.820;4.330;2023-02-15T03:00:09;6.00;99.90
35523;DHT22;61478;50.820;4.330;2023-02-15T03:02:40;5.80;99.90
35523;DHT22;61478;50.820;4.330;2023-02-15T03:05:13;5.60;99.90
35523;DHT22;61478;50.820;4.330;2023-02-15T03:07:42;5.60;99.90
35523;DHT22;61478;50.820;4.330;2023-02-15T03:10:11;5.50;99.90
35523;DHT22;61478;50.820;4.330;2023-02-15T03:12:39;5.60;99.90
35523;DHT22;61478;50.820;4.330;2023-02-15T03:15:38;5.70;99.90
35523;DHT22;61478;50.820;4.330;2023-02-15T03:18:28;5.70;99.90
35523;DHT22;61478;50.820;4.330;2023-02-15T03:20:55;5.60;99.90
35523;DHT22;61478;50.820;4.330;2023-02-15T03:23:25;5.50;99.90
35523;DHT22;61478;50.820;4.330;2023-02-15T03:26:01;5.60;99.90
35523;DHT22;61478;50.820;4.330;2023-02-15T03:28:36;5.70;99.90
35523;DHT22;61478;50.820;4.330;2023-02-15T03:31:05;5.70;99.90
35523;DHT22;61478;50.820;4.330;2023-02-15T03:33:37;5.60;99.90
35523;DHT22;61478;50.820;4.330;2023-02-15T03:36:20;5.50;99.90
35523;DHT22;61478;50.820;4.330;2023-02-15T03:41:53;5.40;99.90
35523;DHT22;61478;50.820;4.330;2023-02-15T03:44:33;5.30;99.90
35523;DHT22;61478;50.820;4.330;2023-02-15T03:52:29;5.50;99.90
35523;DHT22;61478;50.820;4.330;2023-02-15T03:54:55;5.50;99.90
35523;DHT22;61478;50.820;4.330;2023-02-15T03:57:25;5.50;99.90
35523;DHT22;61478;50.820;4.330;2023-02-15T04:00:21;5.50;99.90
35523;DHT22;61478;50.820;4.330;2023-02-15T04:05:42;5.50;99.90
35523;DHT22;61478;50.820;4.330;2023-02-15T04:08:09;5.60;99.90
35523;DHT22;61478;50.820;4.330;2023-02-15T04:10:35;5.50;99.90
35523;DHT22;61478;50.820;4.330;2023-02-15T04:13:30;5.40;99.90
35523;DHT22;61478;50.820;4.330;2023-02-15T04:15:56;5.40;99.90
35523;DHT22;61478;50.820;4.330;2023-02-15T04:18:37;5.40;99.90
35523;DHT22;61478;50.820;4.330;2023-02-15T04:21:22;5.30;99.90
35523;DHT22;61478;50.820;4.330;2023-02-15T04:24:07;5.30;99.90
35523;DHT22;61478;50.820;4.330;2023-02-15T04:26:52;5.10;99.90
35523;DHT22;61478;50.820;4.330;2023-02-15T04:29:28;5.20;99.90
35523;DHT22;61478;50.820;4.330;2023-02-15T04:31:57;5.00;99.90
35523;DHT22;61478;50.820;4.330;2023-02-15T04:34:23;5.00;99.90
35523;DHT22;61478;50.820;4.330;2023-02-15T04:36:49;5.20;99.90
35523;DHT22;61478;50.820;4.330;2023-02-15T04:39:17;5.30;99.90
35523;DHT22;61478;50.820;4.330;2023-02-15T04:41:43;5.30;99.90
35523;DHT22;61478;50.820;4.330;2023-02-15T04:44:09;5.30;99.90
35523;DHT22;61478;50.820;4.330;2023-02-15T04:46:35;5.10;99.90
35523;DHT22;61478;50.820;4.330;2023-02-15T04:49:01;4.90;99.90
35523;DHT22;61478;50.820;4.330;2023-02-15T04:51:28;4.90;99.90
35523;DHT22;61478;50.820;4.330;2023-02-15T04:53:54;4.70;99.90
35523;DHT22;61478;50.820;4.330;2023-02-15T04:56:21;4.70;99.90
35523;DHT22;61478;50.820;4.330;2023-02-15T04:58:47;4.70;99.90
35523;DHT22;61478;50.820;4.330;2023-02-15T05:01:14;4.60;99.90
35523;DHT22;61478;50.820;4.330;2023-02-15T05:03:39;4.80;99.90
35523;DHT22;61478;50.820;4.330;2023-02-15T05:06:05;4.90;99.90
35523;DHT22;61478;50.820;4.330;2023-02-15T05:08:32;5.00;99.90
35523;DHT22;61478;50.820;4.330;2023-02-15T05:10:57;4.80;99.90
35523;DHT22;61478;50.820;4.330;2023-02-15T05:13:24;4.60;99.90
35523;DHT22;61478;50.820;4.330;2023-02-15T05:15:53;4.40;99.90
35523;DHT22;61478;50.820;4.330;2023-02-15T05:18:20;4.20;99.90
35523;DHT22;61478;50.820;4.330;2023-02-15T05:20:47;4.30;99.90
35523;DHT22;61478;50.820;4.330;2023-02-15T05:23:13;4.30;99.90
35523;DHT22;61478;50.820;4.330;2023-02-15T05:25:39;4.60;99.90
35523;DHT22;61478;50.820;4.330;2023-02-15T05:28:26;4.70;99.90
35523;DHT22;61478;50.820;4.330;2023-02-15T05:31:14;4.60;99.90
35523;DHT22;61478;50.820;4.330;2023-02-15T05:33:42;4.60;99.90
35523;DHT22;61478;50.820;4.330;2023-02-15T05:36:08;4.40;99.90
35523;DHT22;61478;50.820;4.330;2023-02-15T05:38:35;4.30;99.90
35523;DHT22;61478;50.820;4.330;2023-02-15T05:41:06;4.40;99.90
35523;DHT22;61478;50.820;4.330;2023-02-15T05:43:33;4.50;99.90
35523;DHT22;61478;50.820;4.330;2023-02-15T05:46:00;4.40;99.90
35523;DHT22;61478;50.820;4.330;2023-02-15T05:48:27;4.60;99.90
35523;DHT22;61478;50.820;4.330;2023-02-15T05:53:29;4.40;99.90
35523;DHT22;61478;50.820;4.330;2023-02-15T05:55:58;4.20;99.90
35523;DHT22;61478;50.820;4.330;2023-02-15T05:58:36;4.20;99.90
35523;DHT22;61478;50.820;4.330;2023-02-15T06:03:38;4.30;99.90
35523;DHT22;61478;50.820;4.330;2023-02-15T06:06:04;4.30;99.90
35523;DHT22;61478;50.820;4.330;2023-02-15T06:08:31;4.10;99.90
35523;DHT22;61478;50.820;4.330;2023-02-15T06:10:57;4.00;99.90
35523;DHT22;61478;50.820;4.330;2023-02-15T06:13:23;3.90;99.90
35523;DHT22;61478;50.820;4.330;2023-02-15T06:15:49;3.90;99.90
35523;DHT22;61478;50.820;4.330;2023-02-15T06:18:15;4.00;99.90
35523;DHT22;61478;50.820;4.330;2023-02-15T06:20:41;4.10;99.90
35523;DHT22;61478;50.820;4.330;2023-02-15T06:23:07;4.10;99.90
35523;DHT22;61478;50.820;4.330;2023-02-15T06:25:33;3.80;99.90
35523;DHT22;61478;50.820;4.330;2023-02-15T06:27:59;3.60;99.90
35523;DHT22;61478;50.820;4.330;2023-02-15T06:30:25;3.50;99.90
35523;DHT22;61478;50.820;4.330;2023-02-15T06:32:51;3.60;99.90
35523;DHT22;61478;50.820;4.330;2023-02-15T06:35:19;3.70;99.90
35523;DHT22;61478;50.820;4.330;2023-02-15T06:37:46;3.80;99.90
35523;DHT22;61478;50.820;4.330;2023-02-15T06:40:12;3.70;99.90
35523;DHT22;61478;50.820;4.330;2023-02-15T06:42:38;4.00;99.90
35523;DHT22;61478;50.820;4.330;2023-02-15T06:45:04;4.00;99.90
35523;DHT22;61478;50.820;4.330;2023-02-15T06:47:30;4.10;99.90
35523;DHT22;61478;50.820;4.330;2023-02-15T06:49:56;4.20;99.90
35523;DHT22;61478;50.820;4.330;2023-02-15T06:52:23;4.30;99.90
35523;DHT22;61478;50.820;4.330;2023-02-15T06:54:49;4.40;99.90
35523;DHT22;61478;50.820;4.330;2023-02-15T06:57:15;4.50;99.90
35523;DHT22;61478;50.820;4.330;2023-02-15T06:59:41;4.60;99.90
35523;DHT22;61478;50.820;4.330;2023-02-15T07:02:09;4.70;99.90
35523;DHT22;61478;50.820;4.330;2023-02-15T07:04:34;4.70;99.90
35523;DHT22;61478;50.820;4.330;2023-02-15T07:07:00;4.50;99.90
35523;DHT22;61478;50.820;4.330;2023-02-15T07:09:27;4.40;99.90
35523;DHT22;61478;50.820;4.330;2023-02-15T07:11:52;4.20;99.90
35523;DHT22;61478;50.820;4.330;2023-02-15T07:14:37;4.10;99.90
35523;DHT22;61478;50.820;4.330;2023-02-15T07:17:03;4.10;99.90
35523;DHT22;61478;50.820;4.330;2023-02-15T07:19:28;4.20;99.90
35523;DHT22;61478;50.820;4.330;2023-02-15T07:21:54;4.30;99.90
35523;DHT22;61478;50.820;4.330;2023-02-15T07:24:20;4.20;99.90
35523;DHT22;61478;50.820;4.330;2023-02-15T07:26:46;4.20;99.90
35523;DHT22;61478;50.820;4.330;2023-02-15T07:29:12;4.30;99.90
35523;DHT22;61478;50.820;4.330;2023-02-15T07:31:38;4.60;99.90
35523;DHT22;61478;50.820;4.330;2023-02-15T07:34:06;4.60;99.90
35523;DHT22;61478;50.820;4.330;2023-02-15T07:36:32;4.50;99.90
35523;DHT22;61478;50.820;4.330;2023-02-15T07:38:58;4.50;99.90
35523;DHT22;61478;50.820;4.330;2023-02-15T07:41:23;4.60;99.90
35523;DHT22;61478;50.820;4.330;2023-02-15T07:43:52;4.60;99.90
35523;DHT22;61478;50.820;4.330;2023-02-15T07:46:18;4.80;99.90
35523;DHT22;61478;50.820;4.330;2023-02-15T07:48:46;4.70;99.90
35523;DHT22;61478;50.820;4.330;2023-02-15T07:51:13;4.70;99.90
35523;DHT22;61478;50.820;4.330;2023-02-15T07:53:40;4.70;99.90
35523;DHT22;61478;50.820;4.330;2023-02-15T07:56:11;4.80;99.90
35523;DHT22;61478;50.820;4.330;2023-02-15T07:58:38;5.00;99.90
35523;DHT22;61478;50.820;4.330;2023-02-15T08:01:18;5.10;99.90
35523;DHT22;61478;50.820;4.330;2023-02-15T08:03:44;4.90;99.90
35523;DHT22;61478;50.820;4.330;2023-02-15T08:06:10;4.80;99.90
35523;DHT22;61478;50.820;4.330;2023-02-15T08:08:39;4.60;99.90
35523;DHT22;61478;50.820;4.330;2023-02-15T08:11:22;4.60;99.90
35523;DHT22;61478;50.820;4.330;2023-02-15T08:14:02;4.60;99.90
35523;DHT22;61478;50.820;4.330;2023-02-15T08:16:32;4.80;99.90
35523;DHT22;61478;50.820;4.330;2023-02-15T08:19:01;5.00;99.90
35523;DHT22;61478;50.820;4.330;2023-02-15T08:21:33;5.40;99.90
35523;DHT22;61478;50.820;4.330;2023-02-15T08:24:00;5.60;99.90
35523;DHT22;61478;50.820;4.330;2023-02-15T08:26:27;5.70;99.90
35523;DHT22;61478;50.820;4.330;2023-02-15T08:28:54;5.90;99.90
35523;DHT22;61478;50.820;4.330;2023-02-15T08:31:21;5.90;99.90
35523;DHT22;61478;50.820;4.330;2023-02-15T08:33:48;5.90;99.90
35523;DHT22;61478;50.820;4.330;2023-02-15T08:36:17;5.70;99.90
35523;DHT22;61478;50.820;4.330;2023-02-15T08:38:44;5.70;99.90
35523;DHT22;61478;50.820;4.330;2023-02-15T08:41:23;5.80;99.90
35523;DHT22;61478;50.820;4.330;2023-02-15T08:43:55;5.90;99.90
35523;DHT22;61478;50.820;4.330;2023-02-15T08:46:23;6.10;99.90
35523;DHT22;61478;50.820;4.330;2023-02-15T08:48:52;6.20;99.90
35523;DHT22;61478;50.820;4.330;2023-02-15T08:51:26;6.30;99.90
35523;DHT22;61478;50.820;4.330;2023-02-15T08:53:54;6.20;99.90
35523;DHT22;61478;50.820;4.330;2023-02-15T08:56:25;6.00;99.90
35523;DHT22;61478;50.820;4.330;2023-02-15T08:58:53;6.10;99.90
35523;DHT22;61478;50.820;4.330;2023-02-15T09:01:23;6.20;99.90
35523;DHT22;61478;50.820;4.330;2023-02-15T09:03:51;6.40;99.90
35523;DHT22;61478;50.820;4.330;2023-02-15T09:06:19;6.30;99.90
35523;DHT22;61478;50.820;4.330;2023-02-15T09:08:45;6.40;99.90
35523;DHT22;61478;50.820;4.330;2023-02-15T09:11:23;6.60;99.90
35523;DHT22;61478;50.820;4.330;2023-02-15T09:13:59;6.80;99.90
35523;DHT22;61478;50.820;4.330;2023-02-15T09:16:28;6.90;99.90
35523;DHT22;61478;50.820;4.330;2023-02-15T09:18:54;6.80;99.90
35523;DHT22;61478;50.820;4.330;2023-02-15T09:21:24;6.80;99.90
35523;DHT22;61478;50.820;4.330;2023-02-15T09:23:52;6.80;99.90
35523;DHT22;61478;50.820;4.330;2023-02-15T09:26:22;6.80;99.90
35523;DHT22;61478;50.820;4.330;2023-02-15T09:28:53;6.90;99.90
35523;DHT22;61478;50.820;4.330;2023-02-15T09:31:28;7.00;99.90
35523;DHT22;61478;50.820;4.330;2023-02-15T09:33:55;7.00;99.90
35523;DHT22;61478;50.820;4.330;2023-02-15T09:36:33;7.00;99.90
35523;DHT22;61478;50.820;4.330;2023-02-15T09:39:21;6.90;99.90
35523;DHT22;61478;50.820;4.330;2023-02-15T09:42:21;6.90;99.90
35523;DHT22;61478;50.820;4.330;2023-02-15T09:48:15;7.20;99.90
35523;DHT22;61478;50.820;4.330;2023-02-15T09:51:21;7.50;99.90
35523;DHT22;61478;50.820;4.330;2023-02-15T09:53:54;7.70;99.90
35523;DHT22;61478;50.820;4.330;2023-02-15T09:57:10;7.90;99.90
35523;DHT22;61478;50.820;4.330;2023-02-15T10:02:34;8.40;99.90
35523;DHT22;61478;50.820;4.330;2023-02-15T10:05:21;8.40;99.90
35523;DHT22;61478;50.820;4.330;2023-02-15T10:26:47;9.00;99.90
35523;DHT22;61478;50.820;4.330;2023-02-15T10:29:38;9.20;99.90
35523;DHT22;61478;50.820;4.330;2023-02-15T10:32:25;9.30;99.90
35523;DHT22;61478;50.820;4.330;2023-02-15T10:42:55;9.70;99.90
35523;DHT22;61478;50.820;4.330;2023-02-15T10:45:40;9.80;99.90
35523;DHT22;61478;50.820;4.330;2023-02-15T10:50:55;10.00;99.90
35523;DHT22;61478;50.820;4.330;2023-02-15T10:53:32;10.00;99.90
35523;DHT22;61478;50.820;4.330;2023-02-15T11:01:32;10.00;99.90
35523;DHT22;61478;50.820;4.330;2023-02-15T11:06:50;10.30;99.90
35523;DHT22;61478;50.820;4.330;2023-02-15T11:09:21;10.50;99.90
35523;DHT22;61478;50.820;4.330;2023-02-15T11:11:53;10.80;99.90
35523;DHT22;61478;50.820;4.330;2023-02-15T11:14:27;11.00;99.90
35523;DHT22;61478;50.820;4.330;2023-02-15T11:17:02;11.20;99.90
35523;DHT22;61478;50.820;4.330;2023-02-15T11:19:33;11.40;99.90
35523;DHT22;61478;50.820;4.330;2023-02-15T11:22:03;11.20;99.90
35523;DHT22;61478;50.820;4.330;2023-02-15T11:24:33;11.10;99.90
35523;DHT22;61478;50.820;4.330;2023-02-15T11:29:55;11.30;99.90
35523;DHT22;61478;50.820;4.330;2023-02-15T11:32:44;11.50;99.90
35523;DHT22;61478;50.820;4.330;2023-02-15T11:37:46;12.10;99.90
35523;DHT22;61478;50.820;4.330;2023-02-15T11:40:34;12.50;99.90
35523;DHT22;61478;50.820;4.330;2023-02-15T11:43:14;12.90;99.90
35523;DHT22;61478;50.820;4.330;2023-02-15T11:45:42;13.00;99.90
35523;DHT22;61478;50.820;4.330;2023-02-15T11:48:12;12.90;99.90
35523;DHT22;61478;50.820;4.330;2023-02-15T11:50:39;13.00;99.90
35523;DHT22;61478;50.820;4.330;2023-02-15T11:53:11;13.00;99.90
35523;DHT22;61478;50.820;4.330;2023-02-15T11:55:38;12.90;99.90
35523;DHT22;61478;50.820;4.330;2023-02-15T11:58:27;12.80;99.90
35523;DHT22;61478;50.820;4.330;2023-02-15T12:01:02;12.80;99.90
35523;DHT22;61478;50.820;4.330;2023-02-15T12:06:35;13.10;99.90
35523;DHT22;61478;50.820;4.330;2023-02-15T12:09:15;13.10;99.90
35523;DHT22;61478;50.820;4.330;2023-02-15T12:11:44;13.00;99.90
35523;DHT22;61478;50.820;4.330;2023-02-15T12:14:12;12.70;99.90
35523;DHT22;61478;50.820;4.330;2023-02-15T12:16:45;12.40;99.90
35523;DHT22;61478;50.820;4.330;2023-02-15T12:19:41;12.10;99.90
35523;DHT22;61478;50.820;4.330;2023-02-15T12:22:28;12.10;99.90
35523;DHT22;61478;50.820;4.330;2023-02-15T12:24:58;12.20;99.90
35523;DHT22;61478;50.820;4.330;2023-02-15T12:27:27;12.30;99.90
35523;DHT22;61478;50.820;4.330;2023-02-15T12:29:59;12.30;99.90
35523;DHT22;61478;50.820;4.330;2023-02-15T12:32:34;12.50;99.90
35523;DHT22;61478;50.820;4.330;2023-02-15T12:35:13;12.70;99.90
35523;DHT22;61478;50.820;4.330;2023-02-15T12:37:53;12.90;99.90
35523;DHT22;61478;50.820;4.330;2023-02-15T12:40:26;13.00;99.90
35523;DHT22;61478;50.820;4.330;2023-02-15T12:42:53;13.20;99.90
35523;DHT22;61478;50.820;4.330;2023-02-15T12:45:25;13.30;99.90
35523;DHT22;61478;50.820;4.330;2023-02-15T12:50:46;13.50;99.90
35523;DHT22;61478;50.820;4.330;2023-02-15T12:56:00;13.50;99.90
35523;DHT22;61478;50.820;4.330;2023-02-15T12:58:30;13.50;99.90
35523;DHT22;61478;50.820;4.330;2023-02-15T13:04:25;13.40;99.90
35523;DHT22;61478;50.820;4.330;2023-02-15T13:06:27;13.40;99.90
35523;DHT22;61478;50.820;4.330;2023-02-15T13:08:56;13.30;99.90
35523;DHT22;61478;50.820;4.330;2023-02-15T13:11:30;13.40;99.90
35523;DHT22;61478;50.820;4.330;2023-02-15T13:14:22;13.40;99.90
35523;DHT22;61478;50.820;4.330;2023-02-15T13:16:53;13.40;99.90
35523;DHT22;61478;50.820;4.330;2023-02-15T13:19:49;13.30;99.90
35523;DHT22;61478;50.820;4.330;2023-02-15T13:22:30;13.30;99.90
35523;DHT22;61478;50.820;4.330;2023-02-15T13:25:03;13.30;99.90
35523;DHT22;61478;50.820;4.330;2023-02-15T13:27:36;13.30;99.90
35523;DHT22;61478;50.820;4.330;2023-02-15T13:30:30;13.30;99.90
35523;DHT22;61478;50.820;4.330;2023-02-15T13:33:03;13.30;99.90
35523;DHT22;61478;50.820;4.330;2023-02-15T13:36:12;13.20;99.90
35523;DHT22;61478;50.820;4.330;2023-02-15T13:41:28;13.20;99.90
35523;DHT22;61478;50.820;4.330;2023-02-15T13:46:55;13.10;99.90
35523;DHT22;61478;50.820;4.330;2023-02-15T13:52:56;13.10;99.90
35523;DHT22;61478;50.820;4.330;2023-02-15T14:10:45;13.20;99.90
35523;DHT22;61478;50.820;4.330;2023-02-15T14:16:41;13.20;99.90
35523;DHT22;61478;50.820;4.330;2023-02-15T14:24:36;13.10;99.90
35523;DHT22;61478;50.820;4.330;2023-02-15T14:29:41;12.80;99.90
35523;DHT22;61478;50.820;4.330;2023-02-15T14:32:27;12.80;99.90
35523;DHT22;61478;50.820;4.330;2023-02-15T14:34:57;12.60;99.90
35523;DHT22;61478;50.820;4.330;2023-02-15T14:43:28;12.40;99.90
35523;DHT22;61478;50.820;4.330;2023-02-15T14:48:32;12.50;99.90
35523;DHT22;61478;50.820;4.330;2023-02-15T14:51:00;12.40;99.90
35523;DHT22;61478;50.820;4.330;2023-02-15T15:01:27;12.40;99.90
35523;DHT22;61478;50.820;4.330;2023-02-15T15:04:02;12.40;99.90
35523;DHT22;61478;50.820;4.330;2023-02-15T15:06:32;12.40;99.90
35523;DHT22;61478;50.820;4.330;2023-02-15T15:09:20;12.40;99.90
35523;DHT22;61478;50.820;4.330;2023-02-15T15:11:50;12.40;99.90
35523;DHT22;61478;50.820;4.330;2023-02-15T15:16:58;12.40;99.90
35523;DHT22;61478;50.820;4.330;2023-02-15T15:22:22;12.40;99.90
35523;DHT22;61478;50.820;4.330;2023-02-15T15:24:59;12.40;99.90
35523;DHT22;61478;50.820;4.330;2023-02-15T15:46:37;12.40;99.90
35523;DHT22;61478;50.820;4.330;2023-02-15T15:49:15;12.40;99.90
35523;DHT22;61478;50.820;4.330;2023-02-15T15:51:42;12.40;99.90
35523;DHT22;61478;50.820;4.330;2023-02-15T15:54:21;12.30;99.90
35523;DHT22;61478;50.820;4.330;2023-02-15T15:56:51;12.40;99.90
35523;DHT22;61478;50.820;4.330;2023-02-15T15:59:27;12.60;99.90
35523;DHT22;61478;50.820;4.330;2023-02-15T16:01:54;12.80;99.90
35523;DHT22;61478;50.820;4.330;2023-02-15T16:04:29;12.90;99.90
35523;DHT22;61478;50.820;4.330;2023-02-15T16:07:13;12.90;99.90
35523;DHT22;61478;50.820;4.330;2023-02-15T16:09:39;13.00;99.90
35523;DHT22;61478;50.820;4.330;2023-02-15T16:12:15;12.90;99.90
35523;DHT22;61478;50.820;4.330;2023-02-15T16:14:43;12.90;99.90
35523;DHT22;61478;50.820;4.330;2023-02-15T16:17:23;13.00;99.90
35523;DHT22;61478;50.820;4.330;2023-02-15T16:19:50;12.80;99.90
35523;DHT22;61478;50.820;4.330;2023-02-15T16:22:25;12.70;99.90
35523;DHT22;61478;50.820;4.330;2023-02-15T16:27:43;12.50;99.90
35523;DHT22;61478;50.820;4.330;2023-02-15T16:30:36;12.40;99.90
35523;DHT22;61478;50.820;4.330;2023-02-15T16:33:06;12.40;99.90
35523;DHT22;61478;50.820;4.330;2023-02-15T16:35:34;12.30;99.90
35523;DHT22;61478;50.820;4.330;2023-02-15T16:38:00;12.10;99.90
35523;DHT22;61478;50.820;4.330;2023-02-15T16:40:38;12.00;99.90
35523;DHT22;61478;50.820;4.330;2023-02-15T16:43:13;12.20;99.90
35523;DHT22;61478;50.820;4.330;2023-02-15T16:45:40;11.90;99.90
35523;DHT22;61478;50.820;4.330;2023-02-15T16:48:12;11.70;99.90
35523;DHT22;61478;50.820;4.330;2023-02-15T16:50:40;11.30;99.90
35523;DHT22;61478;50.820;4.330;2023-02-15T16:53:18;11.00;99.90
35523;DHT22;61478;50.820;4.330;2023-02-15T16:55:49;10.80;99.90
35523;DHT22;61478;50.820;4.330;2023-02-15T16:58:17;10.60;99.90
35523;DHT22;61478;50.820;4.330;2023-02-15T17:00:45;10.50;99.90
35523;DHT22;61478;50.820;4.330;2023-02-15T17:08:23;10.40;99.90
35523;DHT22;61478;50.820;4.330;2023-02-15T17:13:27;10.50;99.90
35523;DHT22;61478;50.820;4.330;2023-02-15T17:18:38;10.30;99.90
35523;DHT22;61478;50.820;4.330;2023-02-15T17:21:17;10.20;99.90
35523;DHT22;61478;50.820;4.330;2023-02-15T17:23:46;10.20;99.90
35523;DHT22;61478;50.820;4.330;2023-02-15T17:31:17;10.10;99.90
35523;DHT22;61478;50.820;4.330;2023-02-15T17:33:44;10.10;99.90
35523;DHT22;61478;50.820;4.330;2023-02-15T17:36:16;10.10;99.90
35523;DHT22;61478;50.820;4.330;2023-02-15T17:39:18;10.20;99.90
35523;DHT22;61478;50.820;4.330;2023-02-15T17:41:47;10.10;99.90
35523;DHT22;61478;50.820;4.330;2023-02-15T17:44:23;10.20;99.90
35523;DHT22;61478;50.820;4.330;2023-02-15T17:46:49;10.40;99.90
35523;DHT22;61478;50.820;4.330;2023-02-15T17:49:23;10.50;99.90
35523;DHT22;61478;50.820;4.330;2023-02-15T17:51:49;10.50;99.90
35523;DHT22;61478;50.820;4.330;2023-02-15T17:54:16;10.40;99.90
35523;DHT22;61478;50.820;4.330;2023-02-15T17:57:01;10.40;99.90
35523;DHT22;61478;50.820;4.330;2023-02-15T17:59:33;10.40;99.90
35523;DHT22;61478;50.820;4.330;2023-02-15T18:02:00;10.30;99.90
35523;DHT22;61478;50.820;4.330;2023-02-15T18:04:50;10.30;99.90
35523;DHT22;61478;50.820;4.330;2023-02-15T18:07:35;10.20;99.90
35523;DHT22;61478;50.820;4.330;2023-02-15T18:10:20;10.00;99.90
35523;DHT22;61478;50.820;4.330;2023-02-15T18:13:05;9.70;99.90
35523;DHT22;61478;50.820;4.330;2023-02-15T18:15:31;9.70;99.90
35523;DHT22;61478;50.820;4.330;2023-02-15T18:18:01;9.70;99.90
35523;DHT22;61478;50.820;4.330;2023-02-15T18:20:42;9.80;99.90
35523;DHT22;61478;50.820;4.330;2023-02-15T18:23:14;9.90;99.90
35523;DHT22;61478;50.820;4.330;2023-02-15T18:25:44;10.00;99.90
35523;DHT22;61478;50.820;4.330;2023-02-15T18:28:14;10.00;99.90
35523;DHT22;61478;50.820;4.330;2023-02-15T18:30:43;10.00;99.90
35523;DHT22;61478;50.820;4.330;2023-02-15T18:33:32;9.80;99.90
35523;DHT22;61478;50.820;4.330;2023-02-15T18:36:03;9.50;99.90
35523;DHT22;61478;50.820;4.330;2023-02-15T18:38:35;9.30;99.90
35523;DHT22;61478;50.820;4.330;2023-02-15T18:41:06;9.20;99.90
35523;DHT22;61478;50.820;4.330;2023-02-15T18:43:33;9.10;99.90
35523;DHT22;61478;50.820;4.330;2023-02-15T18:46:01;9.10;99.90
35523;DHT22;61478;50.820;4.330;2023-02-15T18:48:35;9.00;99.90
35523;DHT22;61478;50.820;4.330;2023-02-15T18:51:21;9.10;99.90
35523;DHT22;61478;50.820;4.330;2023-02-15T18:53:50;9.00;99.90
35523;DHT22;61478;50.820;4.330;2023-02-15T18:56:19;9.10;99.90
35523;DHT22;61478;50.820;4.330;2023-02-15T18:58:46;9.20;99.90
35523;DHT22;61478;50.820;4.330;2023-02-15T19:01:18;9.30;99.90
35523;DHT22;61478;50.820;4.330;2023-02-15T19:03:51;9.20;99.90
35523;DHT22;61478;50.820;4.330;2023-02-15T19:06:20;9.30;99.90
35523;DHT22;61478;50.820;4.330;2023-02-15T19:08:48;9.40;99.90
35523;DHT22;61478;50.820;4.330;2023-02-15T19:11:21;9.30;99.90
35523;DHT22;61478;50.820;4.330;2023-02-15T19:13:51;9.20;99.90
35523;DHT22;61478;50.820;4.330;2023-02-15T19:16:32;9.10;99.90
35523;DHT22;61478;50.820;4.330;2023-02-15T19:18:58;9.20;99.90